createdAt,value
2023-03-08T00:02:31.885Z,58.36
2023-03-08T00:05:02.070Z,58.31
2023-03-08T00:07:31.116Z,57.69
2023-03-08T00:10:00.304Z,57.85
2023-03-08T00:12:29.137Z,57.89
2023-03-08T00:14:57.542Z,57.64
2023-03-08T00:17:31.071Z,57.66
2023-03-08T00:20:00.018Z,57.70
2023-03-08T00:22:28.562Z,57.45
2023-03-08T00:24:57.062Z,57.58
2023-03-08T00:27:27.296Z,58.03
2023-03-08T00:29:56.278Z,58.53
2023-03-08T00:32:28.054Z,59.87
2023-03-08T00:34:56.907Z,59.37
2023-03-08T00:37:26.915Z,58.60
2023-03-08T00:39:56.005Z,59.36
2023-03-08T00:42:31.061Z,62.19
2023-03-08T00:45:00.264Z,62.61
2023-03-08T00:47:30.113Z,62.94
2023-03-08T00:49:58.970Z,62.57
2023-03-08T00:52:27.600Z,63.60
2023-03-08T00:54:56.343Z,63.70
2023-03-08T00:57:26.312Z,63.90
2023-03-08T00:59:56.029Z,64.70
2023-03-08T01:02:24.993Z,63.67
2023-03-08T01:04:53.629Z,63.72
2023-03-08T01:07:24.338Z,62.79
2023-03-08T01:09:55.964Z,63.67
2023-03-08T01:12:26.157Z,64.16
2023-03-08T01:14:55.236Z,63.25
2023-03-08T01:17:23.635Z,62.39
2023-03-08T01:19:52.916Z,62.52
2023-03-08T01:22:21.542Z,62.43
2023-03-08T01:24:50.207Z,62.39
2023-03-08T01:27:19.443Z,61.89
2023-03-08T01:29:48.544Z,62.40
2023-03-08T01:32:17.212Z,61.75
2023-03-08T01:34:46.288Z,61.50
2023-03-08T01:37:14.653Z,61.78
2023-03-08T01:39:43.867Z,62.93
2023-03-08T01:42:12.636Z,64.31
2023-03-08T01:45:03.546Z,64.54
2023-03-08T01:47:36.245Z,64.83
2023-03-08T01:50:27.716Z,64.98
2023-03-08T01:52:56.992Z,63.92
2023-03-08T01:55:25.569Z,62.46
2023-03-08T01:57:55.167Z,62.08
2023-03-08T02:00:24.983Z,61.86
2023-03-08T02:03:02.529Z,62.43
2023-03-08T02:05:31.670Z,62.03
2023-03-08T02:08:06.499Z,61.79
2023-03-08T02:10:37.829Z,61.81
2023-03-08T02:13:07.101Z,62.54
2023-03-08T02:15:36.516Z,63.17
2023-03-08T02:18:05.402Z,62.55
2023-03-08T02:20:40.537Z,62.33
2023-03-08T02:23:09.886Z,63.71
2023-03-08T02:25:38.882Z,64.00
2023-03-08T02:28:10.098Z,63.40
2023-03-08T02:30:39.101Z,63.35
2023-03-08T02:33:07.640Z,62.87
2023-03-08T02:35:36.562Z,63.05
2023-03-08T02:38:06.182Z,64.18
2023-03-08T02:40:37.252Z,63.68
2023-03-08T02:43:05.631Z,63.47
2023-03-08T02:45:34.370Z,63.01
2023-03-08T02:48:04.077Z,62.87
2023-03-08T02:50:32.872Z,62.83
2023-03-08T02:53:04.637Z,62.91
2023-03-08T02:55:37.455Z,62.66
2023-03-08T02:58:10.443Z,62.50
2023-03-08T03:00:39.273Z,62.53
2023-03-08T03:03:09.527Z,62.33
2023-03-08T03:05:43.492Z,62.47
2023-03-08T03:08:13.721Z,62.43
2023-03-08T03:10:42.325Z,62.32
2023-03-08T03:13:12.447Z,62.01
2023-03-08T03:15:41.205Z,61.75
2023-03-08T03:18:11.923Z,61.56
2023-03-08T03:20:40.320Z,61.47
2023-03-08T03:23:12.257Z,61.49
2023-03-08T03:25:52.117Z,61.52
2023-03-08T03:28:21.367Z,61.64
2023-03-08T03:30:52.260Z,61.50
2023-03-08T03:33:21.929Z,61.60
2023-03-08T03:35:52.204Z,62.29
2023-03-08T03:38:22.133Z,62.43
2023-03-08T03:41:04.014Z,62.57
2023-03-08T03:43:34.446Z,62.75
2023-03-08T03:46:07.002Z,62.93
2023-03-08T03:48:36.006Z,62.91
2023-03-08T03:51:11.449Z,63.01
2023-03-08T03:53:43.534Z,63.48
2023-03-08T03:56:14.295Z,63.62
2023-03-08T03:58:43.427Z,64.04
2023-03-08T04:01:15.574Z,63.69
2023-03-08T04:03:44.994Z,63.47
2023-03-08T04:06:16.945Z,63.14
2023-03-08T04:08:53.186Z,63.29
2023-03-08T04:11:24.731Z,63.65
2023-03-08T04:13:53.551Z,63.93
2023-03-08T04:16:30.185Z,63.58
2023-03-08T04:19:05.337Z,63.51
2023-03-08T04:21:34.085Z,63.47
2023-03-08T04:24:02.936Z,63.91
2023-03-08T04:26:32.895Z,63.99
2023-03-08T04:29:06.416Z,63.91
2023-03-08T04:31:37.410Z,63.62
2023-03-08T04:34:10.217Z,63.64
2023-03-08T04:36:39.227Z,63.83
2023-03-08T04:39:08.107Z,64.43
2023-03-08T04:41:42.629Z,64.98
2023-03-08T04:44:16.372Z,65.20
2023-03-08T04:46:48.311Z,65.49
2023-03-08T04:49:21.795Z,64.93
2023-03-08T04:51:53.871Z,64.62
2023-03-08T04:54:24.198Z,64.97
2023-03-08T04:56:58.385Z,64.63
2023-03-08T04:59:31.102Z,64.51
2023-03-08T05:02:01.910Z,65.51
2023-03-08T05:04:31.420Z,65.29
2023-03-08T05:06:59.737Z,65.06
2023-03-08T05:09:30.422Z,64.95
2023-03-08T05:11:59.659Z,65.51
2023-03-08T05:14:35.082Z,64.91
2023-03-08T05:17:04.287Z,65.01
2023-03-08T05:19:34.989Z,65.88
2023-03-08T05:22:03.557Z,66.70
2023-03-08T05:24:32.790Z,67.06
2023-03-08T05:27:10.422Z,65.78
2023-03-08T05:29:39.523Z,64.66
2023-03-08T05:32:12.559Z,64.24
2023-03-08T05:34:42.046Z,64.94
2023-03-08T05:37:13.617Z,64.60
2023-03-08T05:39:44.049Z,64.65
2023-03-08T05:42:17.176Z,64.76
2023-03-08T05:44:46.987Z,64.82
2023-03-08T05:47:18.484Z,65.08
2023-03-08T05:49:52.372Z,65.17
2023-03-08T05:52:21.694Z,64.51
2023-03-08T05:54:50.593Z,64.60
2023-03-08T05:57:21.277Z,64.45
2023-03-08T05:59:51.193Z,63.94
2023-03-08T06:02:22.260Z,64.53
2023-03-08T06:04:54.084Z,64.74
2023-03-08T06:07:24.673Z,65.24
2023-03-08T06:09:59.854Z,65.06
2023-03-08T06:12:31.561Z,65.06
2023-03-08T06:15:02.459Z,65.03
2023-03-08T06:17:34.796Z,65.01
2023-03-08T06:20:03.552Z,64.30
2023-03-08T06:22:33.529Z,63.82
2023-03-08T06:25:05.988Z,63.97
2023-03-08T06:27:38.168Z,64.50
2023-03-08T06:30:12.114Z,64.27
2023-03-08T06:32:42.047Z,63.85
2023-03-08T06:35:11.127Z,63.46
2023-03-08T06:37:43.931Z,63.20
2023-03-08T06:40:13.752Z,63.25
2023-03-08T06:42:44.752Z,63.63
2023-03-08T06:45:15.579Z,63.72
2023-03-08T06:47:44.067Z,63.58
2023-03-08T06:50:14.386Z,63.21
2023-03-08T06:52:45.214Z,62.84
2023-03-08T06:55:15.146Z,62.49
2023-03-08T06:57:44.056Z,62.48
2023-03-08T07:00:15.819Z,62.47
2023-03-08T07:02:46.334Z,62.08
2023-03-08T07:05:16.145Z,61.52
2023-03-08T07:07:47.651Z,61.52
2023-03-08T07:10:18.027Z,61.52
2023-03-08T07:12:50.603Z,61.31
2023-03-08T07:15:21.030Z,61.90
2023-03-08T07:17:51.980Z,62.10
2023-03-08T07:20:20.521Z,61.56
2023-03-08T07:22:50.300Z,62.77
2023-03-08T07:25:20.797Z,62.30
2023-03-08T07:27:50.186Z,63.08
2023-03-08T07:30:18.805Z,64.16
2023-03-08T07:32:47.476Z,65.14
2023-03-08T07:35:20.090Z,64.60
2023-03-08T07:37:49.216Z,63.99
2023-03-08T07:40:18.429Z,64.20
2023-03-08T07:42:47.647Z,64.41
2023-03-08T07:45:33.631Z,64.50
2023-03-08T07:48:02.451Z,64.38
2023-03-08T07:50:31.509Z,63.03
2023-03-08T07:53:00.434Z,62.23
2023-03-08T07:55:29.425Z,61.81
2023-03-08T07:57:58.186Z,63.12
2023-03-08T08:00:27.596Z,62.84
2023-03-08T08:02:56.244Z,62.61
2023-03-08T08:05:25.708Z,62.47
2023-03-08T08:07:54.562Z,62.54
2023-03-08T08:10:23.261Z,63.07
2023-03-08T08:12:56.810Z,63.05
2023-03-08T08:15:25.966Z,62.55
2023-03-08T08:17:54.352Z,62.57
2023-03-08T08:20:22.987Z,62.36
2023-03-08T08:22:53.619Z,62.64
2023-03-08T08:25:23.975Z,62.61
2023-03-08T08:27:52.622Z,62.50
2023-03-08T08:30:21.179Z,62.35
2023-03-08T08:32:53.631Z,62.58
2023-03-08T08:35:25.466Z,62.62
2023-03-08T08:37:59.783Z,63.60
2023-03-08T08:40:28.684Z,63.24
2023-03-08T08:42:57.499Z,63.20
2023-03-08T08:45:26.440Z,63.30
2023-03-08T08:47:54.931Z,62.69
2023-03-08T08:50:23.419Z,62.82
2023-03-08T08:52:52.015Z,62.27
2023-03-08T08:55:20.878Z,61.75
2023-03-08T08:57:49.675Z,61.22
2023-03-08T09:00:19.945Z,60.45
2023-03-08T09:02:48.607Z,59.87
2023-03-08T09:05:17.517Z,59.61
2023-03-08T09:07:46.510Z,60.09
2023-03-08T09:10:14.889Z,59.49
2023-03-08T09:12:43.504Z,59.29
2023-03-08T09:15:12.275Z,58.90
2023-03-08T09:17:41.123Z,58.57
2023-03-08T09:20:13.843Z,58.53
2023-03-08T09:22:42.989Z,58.22
2023-03-08T09:25:11.824Z,57.62
2023-03-08T09:27:40.960Z,57.37
2023-03-08T09:30:13.043Z,57.08
2023-03-08T09:32:41.787Z,56.62
2023-03-08T09:35:10.947Z,56.35
2023-03-08T09:37:39.397Z,55.50
2023-03-08T09:40:11.583Z,55.15
2023-03-08T09:42:40.656Z,54.57
2023-03-08T09:45:19.044Z,54.11
2023-03-08T09:47:50.910Z,54.80
2023-03-08T09:50:32.915Z,55.14
2023-03-08T09:53:42.089Z,54.22
2023-03-08T09:56:24.892Z,54.15
2023-03-08T09:59:14.452Z,53.49
2023-03-08T10:01:52.995Z,53.18
2023-03-08T10:04:24.654Z,53.26
2023-03-08T10:07:21.747Z,53.11
2023-03-08T10:10:02.954Z,52.84
2023-03-08T10:12:52.694Z,52.55
2023-03-08T10:15:26.058Z,51.89
2023-03-08T10:17:59.685Z,51.07
2023-03-08T10:20:28.143Z,51.00
2023-03-08T10:23:02.238Z,50.76
2023-03-08T10:25:34.246Z,51.02
2023-03-08T10:28:04.131Z,51.18
2023-03-08T10:30:36.262Z,51.10
2023-03-08T10:33:07.929Z,50.37
2023-03-08T10:35:56.344Z,50.38
2023-03-08T10:38:31.521Z,49.90
2023-03-08T10:41:02.258Z,49.67
2023-03-08T10:43:33.078Z,49.13
2023-03-08T10:46:04.781Z,48.50
2023-03-08T10:48:33.590Z,48.05
2023-03-08T10:51:30.573Z,47.61
2023-03-08T10:54:00.943Z,47.44
2023-03-08T10:56:33.015Z,47.39
2023-03-08T10:59:01.525Z,46.39
2023-03-08T11:01:32.404Z,46.11
2023-03-08T11:04:13.396Z,45.90
2023-03-08T11:06:42.021Z,45.62
2023-03-08T11:09:24.321Z,45.48
2023-03-08T11:11:53.193Z,45.55
2023-03-08T11:14:21.840Z,46.03
2023-03-08T11:16:59.826Z,46.16
2023-03-08T11:19:43.414Z,45.80
2023-03-08T11:22:43.459Z,44.97
2023-03-08T11:25:50.173Z,44.08
2023-03-08T11:28:27.000Z,43.53
2023-03-08T11:31:08.815Z,43.50
2023-03-08T11:33:50.695Z,43.31
2023-03-08T11:36:19.399Z,43.05
2023-03-08T11:38:52.595Z,42.63
2023-03-08T11:41:40.502Z,42.23
2023-03-08T11:44:16.787Z,42.16
2023-03-08T11:47:03.610Z,42.43
2023-03-08T11:49:34.691Z,42.23
2023-03-08T11:52:28.829Z,42.18
2023-03-08T11:55:10.791Z,42.10
2023-03-08T11:57:44.040Z,41.72
2023-03-08T12:00:30.149Z,41.26
2023-03-08T12:03:01.142Z,40.98
2023-03-08T12:05:33.756Z,40.94
2023-03-08T12:08:05.679Z,40.77
2023-03-08T12:10:35.976Z,40.61
2023-03-08T12:13:23.592Z,40.24
2023-03-08T12:15:57.832Z,40.80
2023-03-08T12:18:34.797Z,41.33
2023-03-08T12:21:13.489Z,41.33
2023-03-08T12:24:26.309Z,40.90
2023-03-08T12:27:00.497Z,41.40
2023-03-08T12:29:55.556Z,41.69
2023-03-08T12:32:27.937Z,41.55
2023-03-08T12:35:24.807Z,41.26
2023-03-08T12:38:07.857Z,41.28
2023-03-08T12:40:50.376Z,41.00
2023-03-08T12:43:22.584Z,41.19
2023-03-08T12:46:01.878Z,40.65
2023-03-08T12:48:56.005Z,41.21
2023-03-08T12:51:33.299Z,41.27
2023-03-08T12:54:06.128Z,41.14
2023-03-08T12:56:49.943Z,41.25
2023-03-08T12:59:22.641Z,41.13
2023-03-08T13:01:58.096Z,40.92
2023-03-08T13:04:40.032Z,40.75
2023-03-08T13:07:20.852Z,39.71
2023-03-08T13:10:19.909Z,39.35
2023-03-08T13:13:00.352Z,38.76
2023-03-08T13:15:29.241Z,38.63
2023-03-08T13:18:00.150Z,38.00
2023-03-08T13:20:42.014Z,37.63
2023-03-08T13:23:13.965Z,37.20
2023-03-08T13:26:05.391Z,37.23
2023-03-08T13:28:46.677Z,37.34
2023-03-08T13:31:21.025Z,36.93
2023-03-08T13:33:55.525Z,37.12
2023-03-08T13:36:31.786Z,37.09
2023-03-08T13:39:21.255Z,36.73
2023-03-08T13:41:50.033Z,36.71
2023-03-08T13:44:23.699Z,36.49
2023-03-08T13:46:55.336Z,36.51
2023-03-08T13:49:31.719Z,36.81
2023-03-08T13:52:01.710Z,37.10
2023-03-08T13:54:36.874Z,37.17
2023-03-08T13:57:17.563Z,37.22
2023-03-08T13:59:52.086Z,36.76
2023-03-08T14:02:25.618Z,37.21
2023-03-08T14:04:54.504Z,37.41
2023-03-08T14:07:32.423Z,37.35
2023-03-08T14:10:01.578Z,37.44
2023-03-08T14:12:31.960Z,37.67
2023-03-08T14:15:03.164Z,37.66
2023-03-08T14:17:35.194Z,37.80
2023-03-08T14:20:13.687Z,37.72
2023-03-08T14:22:42.350Z,37.65
2023-03-08T14:25:25.701Z,37.83
2023-03-08T14:27:55.378Z,37.69
2023-03-08T14:30:30.564Z,37.84
2023-03-08T14:33:08.322Z,38.07
2023-03-08T14:35:40.162Z,38.24
2023-03-08T14:38:20.742Z,38.32
2023-03-08T14:40:52.338Z,38.49
2023-03-08T14:43:22.810Z,38.57
2023-03-08T14:45:59.984Z,38.83
2023-03-08T14:48:30.922Z,38.88
2023-03-08T14:51:19.065Z,38.92
2023-03-08T14:54:00.010Z,38.88
2023-03-08T14:56:33.348Z,39.12
2023-03-08T14:59:04.411Z,38.90
2023-03-08T15:01:36.441Z,38.95
2023-03-08T15:04:13.269Z,39.08
2023-03-08T15:06:44.993Z,39.45
2023-03-08T15:09:18.321Z,39.36
2023-03-08T15:11:49.112Z,39.11
2023-03-08T15:14:17.951Z,38.95
2023-03-08T15:16:47.787Z,39.10
2023-03-08T15:19:17.137Z,39.26
2023-03-08T15:21:45.396Z,39.35
2023-03-08T15:24:19.658Z,39.36
2023-03-08T15:26:48.704Z,39.50
2023-03-08T15:29:38.675Z,39.61
2023-03-08T15:32:07.872Z,39.83
2023-03-08T15:34:36.695Z,39.73
2023-03-08T15:37:07.145Z,39.88
2023-03-08T15:39:35.724Z,39.87
2023-03-08T15:42:04.925Z,40.00
2023-03-08T15:44:34.210Z,40.06
2023-03-08T15:47:02.870Z,40.20
2023-03-08T15:49:32.685Z,40.48
2023-03-08T15:52:01.177Z,40.39
2023-03-08T15:54:32.106Z,40.33
2023-03-08T15:57:00.822Z,40.49
2023-03-08T15:59:29.269Z,40.46
2023-03-08T16:01:57.952Z,40.55
2023-03-08T16:04:26.419Z,40.44
2023-03-08T16:06:55.220Z,40.28
2023-03-08T16:09:24.664Z,40.43
2023-03-08T16:11:58.976Z,40.42
2023-03-08T16:14:27.687Z,40.41
2023-03-08T16:16:59.555Z,40.46
2023-03-08T16:19:42.886Z,40.59
2023-03-08T16:22:11.594Z,40.60
2023-03-08T16:24:42.365Z,40.53
2023-03-08T16:27:11.167Z,40.64
2023-03-08T16:29:39.672Z,40.64
2023-03-08T16:32:08.628Z,40.75
2023-03-08T16:34:39.123Z,40.93
2023-03-08T16:37:07.439Z,40.87
2023-03-08T16:39:38.366Z,41.06
2023-03-08T16:42:13.531Z,41.41
2023-03-08T16:44:51.077Z,41.39
2023-03-08T16:47:20.321Z,41.58
2023-03-08T16:49:53.747Z,41.84
2023-03-08T16:52:22.844Z,41.63
2023-03-08T16:54:51.657Z,41.50
2023-03-08T16:57:21.990Z,41.60
2023-03-08T16:59:50.423Z,41.32
2023-03-08T17:02:20.617Z,41.20
2023-03-08T17:04:49.901Z,41.24
2023-03-08T17:07:19.021Z,41.05
2023-03-08T17:09:50.995Z,41.40
2023-03-08T17:12:20.261Z,41.40
2023-03-08T17:14:48.666Z,41.34
2023-03-08T17:17:19.217Z,41.36
2023-03-08T17:19:51.640Z,41.37
2023-03-08T17:22:20.135Z,41.01
2023-03-08T17:24:50.632Z,41.06
2023-03-08T17:27:19.164Z,40.95
2023-03-08T17:29:48.785Z,40.83
2023-03-08T17:32:18.001Z,40.68
2023-03-08T17:34:47.043Z,40.71
2023-03-08T17:37:16.026Z,40.69
2023-03-08T17:39:45.644Z,40.80
2023-03-08T17:42:13.953Z,40.97
2023-03-08T17:44:47.068Z,41.51
2023-03-08T17:47:19.672Z,41.93
2023-03-08T17:49:49.038Z,42.27
2023-03-08T17:52:17.529Z,42.83
2023-03-08T17:54:48.493Z,43.23
2023-03-08T17:57:18.876Z,43.52
2023-03-08T17:59:48.890Z,43.93
2023-03-08T18:02:18.156Z,44.57
2023-03-08T18:04:47.501Z,45.05
2023-03-08T18:07:17.218Z,45.03
2023-03-08T18:09:46.397Z,45.03
2023-03-08T18:12:15.995Z,45.04
2023-03-08T18:14:47.466Z,45.58
2023-03-08T18:17:15.966Z,45.90
2023-03-08T18:19:44.430Z,45.86
2023-03-08T18:22:13.537Z,46.01
2023-03-08T18:24:45.155Z,46.51
2023-03-08T18:27:13.870Z,46.87
2023-03-08T18:29:42.992Z,46.90
2023-03-08T18:32:12.307Z,47.12
2023-03-08T18:34:41.791Z,47.27
2023-03-08T18:37:10.293Z,47.45
2023-03-08T18:39:39.424Z,47.56
2023-03-08T18:42:08.580Z,47.49
2023-03-08T18:44:40.270Z,47.64
2023-03-08T18:47:08.933Z,47.97
2023-03-08T18:49:38.498Z,48.32
2023-03-08T18:52:07.123Z,48.28
2023-03-08T18:54:41.611Z,48.52
2023-03-08T18:57:10.545Z,48.84
2023-03-08T18:59:42.095Z,48.68
2023-03-08T19:02:13.498Z,48.78
2023-03-08T19:04:45.197Z,48.88
2023-03-08T19:07:19.230Z,50.06
2023-03-08T19:09:59.038Z,49.63
2023-03-08T19:12:31.355Z,49.59
2023-03-08T19:15:02.720Z,49.88
2023-03-08T19:17:31.970Z,50.07
2023-03-08T19:20:12.851Z,50.19
2023-03-08T19:22:43.070Z,49.98
2023-03-08T19:25:12.819Z,50.21
2023-03-08T19:27:41.264Z,50.47
2023-03-08T19:30:11.800Z,50.43
2023-03-08T19:32:42.216Z,50.43
2023-03-08T19:35:12.252Z,50.72
2023-03-08T19:37:43.056Z,50.61
2023-03-08T19:40:12.746Z,50.82
2023-03-08T19:42:44.800Z,51.06
2023-03-08T19:45:13.533Z,50.70
2023-03-08T19:47:43.105Z,51.26
2023-03-08T19:50:13.509Z,51.16
2023-03-08T19:52:44.043Z,51.37
2023-03-08T19:55:18.676Z,51.89
2023-03-08T19:57:47.398Z,51.92
2023-03-08T20:01:20.195Z,51.87
2023-03-08T20:03:51.743Z,52.62
2023-03-08T20:06:27.320Z,52.53
2023-03-08T20:09:13.503Z,52.43
2023-03-08T20:11:46.989Z,52.51
2023-03-08T20:14:15.926Z,52.50
2023-03-08T20:17:08.626Z,52.30
2023-03-08T20:19:40.114Z,52.58
2023-03-08T20:22:08.581Z,52.69
2023-03-08T20:24:42.686Z,52.59
2023-03-08T20:27:11.471Z,52.97
2023-03-08T20:29:39.956Z,52.65
2023-03-08T20:32:09.095Z,52.63
2023-03-08T20:34:39.258Z,52.38
2023-03-08T20:37:49.700Z,52.31
2023-03-08T20:41:02.048Z,52.88
2023-03-08T20:44:12.488Z,52.84
2023-03-08T20:47:21.040Z,52.88
2023-03-08T20:50:14.509Z,52.53
2023-03-08T20:53:16.820Z,52.52
2023-03-08T20:55:59.547Z,52.58
2023-03-08T20:58:33.649Z,52.41
2023-03-08T21:01:14.728Z,53.02
2023-03-08T21:03:46.567Z,53.53
2023-03-08T21:06:59.757Z,53.65
2023-03-08T21:09:40.391Z,54.63
2023-03-08T21:12:10.080Z,55.33
2023-03-08T21:14:45.709Z,55.35
2023-03-08T21:17:15.798Z,56.03
2023-03-08T21:19:46.640Z,55.98
2023-03-08T21:22:15.319Z,55.62
2023-03-08T21:24:43.697Z,55.76
2023-03-08T21:27:30.416Z,55.66
2023-03-08T21:30:48.574Z,55.71
2023-03-08T21:33:29.942Z,55.74
2023-03-08T21:36:06.546Z,55.50
2023-03-08T21:38:39.316Z,55.15
2023-03-08T21:41:21.554Z,54.79
2023-03-08T21:43:50.426Z,55.17
2023-03-08T21:46:19.466Z,55.16
2023-03-08T21:48:52.417Z,55.47
2023-03-08T21:51:27.363Z,55.15
2023-03-08T21:53:58.235Z,55.44
2023-03-08T21:56:26.720Z,55.38
2023-03-08T21:58:55.864Z,55.52
2023-03-08T22:01:28.685Z,55.44
2023-03-08T22:04:02.934Z,56.48
2023-03-08T22:06:31.834Z,55.91
2023-03-08T22:09:10.366Z,56.64
2023-03-08T22:11:42.029Z,56.88
2023-03-08T22:14:10.940Z,56.87
2023-03-08T22:16:40.489Z,56.88
2023-03-08T22:19:09.787Z,57.78
2023-03-08T22:21:38.247Z,56.82
2023-03-08T22:24:10.559Z,58.14
2023-03-08T22:26:43.800Z,57.52
2023-03-08T22:29:12.251Z,57.04
2023-03-08T22:31:41.673Z,57.37
2023-03-08T22:34:11.217Z,57.32
2023-03-08T22:36:47.768Z,57.12
2023-03-08T22:39:17.050Z,57.16
2023-03-08T22:41:45.691Z,56.56
2023-03-08T22:44:14.743Z,58.10
2023-03-08T22:46:48.640Z,58.28
2023-03-08T22:49:17.259Z,58.73
2023-03-08T22:51:46.065Z,58.61
2023-03-08T22:54:19.460Z,57.92
2023-03-08T22:56:49.860Z,57.47
2023-03-08T22:59:19.051Z,57.80
2023-03-08T23:01:48.176Z,57.72
2023-03-08T23:04:16.812Z,57.69
2023-03-08T23:06:47.879Z,57.41
2023-03-08T23:09:17.276Z,58.07
2023-03-08T23:11:45.860Z,57.64
2023-03-08T23:14:17.010Z,58.01
2023-03-08T23:16:46.110Z,57.40
2023-03-08T23:19:19.577Z,57.93
2023-03-08T23:22:07.822Z,58.45
2023-03-08T23:24:36.516Z,57.87
2023-03-08T23:27:05.685Z,57.75
2023-03-08T23:29:35.725Z,57.94
2023-03-08T23:32:04.763Z,57.87
2023-03-08T23:34:33.853Z,59.20
2023-03-08T23:37:06.036Z,59.34
2023-03-08T23:39:37.002Z,60.55
2023-03-08T23:42:06.475Z,59.31
2023-03-08T23:44:37.763Z,58.81
2023-03-08T23:47:06.683Z,58.55
2023-03-08T23:49:36.027Z,58.57
2023-03-08T23:52:05.342Z,58.90
2023-03-08T23:54:36.213Z,58.72
2023-03-08T23:57:04.883Z,58.39
2023-03-08T23:59:33.696Z,58.40
